createdAt,value
2023-02-06T00:03:59.330Z,63.37
2023-02-06T00:09:03.693Z,59.23
2023-02-06T00:14:07.563Z,61.10
2023-02-06T00:19:10.870Z,55.57
2023-02-06T00:24:14.177Z,62.57
2023-02-06T00:29:17.532Z,67.03
2023-02-06T00:34:20.916Z,61.53
2023-02-06T00:39:24.715Z,52.93
2023-02-06T00:44:29.395Z,52.53
2023-02-06T00:49:32.675Z,68.03
2023-02-06T00:54:36.047Z,51.37
2023-02-06T00:59:39.944Z,52.53
2023-02-06T01:04:43.694Z,47.63
2023-02-06T01:09:47.308Z,52.07
2023-02-06T01:14:51.022Z,35.27
2023-02-06T01:19:54.708Z,50.60
2023-02-06T01:24:58.308Z,56.27
2023-02-06T01:30:01.810Z,66.87
2023-02-06T01:35:07.668Z,87.70
2023-02-06T01:40:15.358Z,91.83
2023-02-06T01:45:27.528Z,76.33
2023-02-06T01:50:33.706Z,60.70
2023-02-06T01:55:39.788Z,58.50
2023-02-06T02:00:44.526Z,47.27
2023-02-06T02:05:49.448Z,46.33
2023-02-06T02:10:52.870Z,54.83
2023-02-06T02:16:27.158Z,43.03
2023-02-06T02:21:55.043Z,42.63
2023-02-06T02:27:49.615Z,48.67
2023-02-06T02:32:55.968Z,77.23
2023-02-06T02:38:06.401Z,59.83
2023-02-06T02:43:27.116Z,64.20
2023-02-06T02:48:35.893Z,60.87
2023-02-06T02:53:39.670Z,82.37
2023-02-06T02:58:44.252Z,56.20
2023-02-06T03:03:51.249Z,65.60
2023-02-06T03:09:12.009Z,78.77
2023-02-06T03:14:21.179Z,69.37
2023-02-06T03:19:32.094Z,67.53
2023-02-06T03:24:39.825Z,54.53
2023-02-06T03:29:44.395Z,64.60
2023-02-06T03:35:07.490Z,55.90
2023-02-06T03:40:12.180Z,65.40
2023-02-06T03:45:22.566Z,68.63
2023-02-06T03:50:27.358Z,82.27
2023-02-06T03:55:31.756Z,86.33
2023-02-06T04:00:35.566Z,66.77
2023-02-06T04:05:39.435Z,89.33
2023-02-06T04:10:42.900Z,83.57
2023-02-06T04:15:46.121Z,77.50
2023-02-06T04:20:49.938Z,67.63
2023-02-06T04:25:53.382Z,82.47
2023-02-06T04:30:57.004Z,107.07
2023-02-06T04:36:00.329Z,105.97
2023-02-06T04:41:07.894Z,98.47
2023-02-06T04:46:11.641Z,81.33
2023-02-06T04:51:15.365Z,77.70
2023-02-06T04:56:18.999Z,87.20
2023-02-06T05:01:22.612Z,85.63
2023-02-06T05:06:25.955Z,88.53
2023-02-06T05:11:29.413Z,88.97
2023-02-06T05:16:33.030Z,89.60
2023-02-06T05:21:36.252Z,73.07
2023-02-06T05:26:39.481Z,101.53
2023-02-06T05:31:42.902Z,90.77
2023-02-06T05:36:46.613Z,79.37
2023-02-06T05:41:50.188Z,95.97
2023-02-06T05:46:53.943Z,93.57
2023-02-06T05:51:57.145Z,109.77
2023-02-06T05:57:00.896Z,94.47
2023-02-06T06:02:05.709Z,92.00
2023-02-06T06:07:09.346Z,74.07
2023-02-06T06:12:12.729Z,79.40
2023-02-06T06:17:16.308Z,92.10
2023-02-06T06:22:19.954Z,91.23
2023-02-06T06:27:23.582Z,78.93
2023-02-06T06:32:27.067Z,91.10
2023-02-06T06:37:30.358Z,85.30
2023-02-06T06:42:33.777Z,76.90
2023-02-06T06:47:39.852Z,82.97
2023-02-06T06:52:43.388Z,67.77
2023-02-06T06:57:48.008Z,77.60
2023-02-06T07:02:52.043Z,96.87
2023-02-06T07:07:55.748Z,78.37
2023-02-06T07:12:59.496Z,78.67
2023-02-06T07:18:03.143Z,80.30
2023-02-06T07:23:07.147Z,68.57
2023-02-06T07:28:10.816Z,72.00
2023-02-06T07:33:14.208Z,74.83
2023-02-06T07:38:17.553Z,78.43
2023-02-06T07:43:21.005Z,76.93
2023-02-06T07:48:24.397Z,87.30
2023-02-06T07:53:27.704Z,87.80
2023-02-06T07:58:31.420Z,102.40
2023-02-06T08:03:35.090Z,86.27
2023-02-06T08:08:38.442Z,106.20
2023-02-06T08:13:43.323Z,95.53
2023-02-06T08:18:47.038Z,93.80
2023-02-06T08:23:58.288Z,100.80
2023-02-06T08:29:04.421Z,111.77
2023-02-06T08:34:11.030Z,78.63
2023-02-06T08:39:15.988Z,70.60
2023-02-06T08:44:20.109Z,66.63
2023-02-06T08:49:27.290Z,75.73
2023-02-06T08:54:32.182Z,73.93
2023-02-06T08:59:36.868Z,74.17
2023-02-06T09:04:40.348Z,65.23
2023-02-06T09:09:43.579Z,65.03
2023-02-06T09:14:46.910Z,61.23
2023-02-06T09:19:50.258Z,51.53
2023-02-06T09:24:54.317Z,51.10
2023-02-06T09:29:57.750Z,51.47
2023-02-06T09:35:01.736Z,41.40
2023-02-06T09:40:05.612Z,38.97
2023-02-06T09:45:21.784Z,37.77
2023-02-06T09:50:48.275Z,31.70
2023-02-06T09:56:36.953Z,39.83
2023-02-06T10:02:00.230Z,31.13
2023-02-06T10:07:19.211Z,35.93
2023-02-06T10:12:31.757Z,32.67
2023-02-06T10:17:42.406Z,31.13
2023-02-06T10:23:07.481Z,31.50
2023-02-06T10:28:29.702Z,29.73
2023-02-06T10:34:07.405Z,31.67
2023-02-06T10:39:48.332Z,31.23
2023-02-06T10:45:06.573Z,31.30
2023-02-06T10:50:30.726Z,29.77
2023-02-06T10:56:03.689Z,31.57
2023-02-06T11:01:24.701Z,30.57
2023-02-06T11:06:30.453Z,35.73
2023-02-06T11:11:39.330Z,27.50
2023-02-06T11:16:43.457Z,28.17
2023-02-06T11:21:52.721Z,22.50
2023-02-06T11:27:11.388Z,24.83
2023-02-06T11:32:52.785Z,22.30
2023-02-06T11:38:14.931Z,23.00
2023-02-06T11:43:26.755Z,21.23
2023-02-06T11:48:56.260Z,18.50
2023-02-06T11:54:04.521Z,18.60
2023-02-06T11:59:16.148Z,15.33
2023-02-06T12:04:38.733Z,17.53
2023-02-06T12:09:42.634Z,16.83
2023-02-06T12:14:58.138Z,16.30
2023-02-06T12:20:21.420Z,19.70
2023-02-06T12:25:40.715Z,16.17
2023-02-06T12:30:56.177Z,15.93
2023-02-06T12:36:09.801Z,16.53
2023-02-06T12:41:21.921Z,15.53
2023-02-06T12:46:28.425Z,16.63
2023-02-06T12:51:47.102Z,19.23
2023-02-06T12:56:55.953Z,18.43
2023-02-06T13:02:17.365Z,14.40
2023-02-06T13:07:24.058Z,16.10
2023-02-06T13:12:30.821Z,17.33
2023-02-06T13:17:37.072Z,14.57
2023-02-06T13:22:45.297Z,17.67
2023-02-06T13:27:48.917Z,15.20
2023-02-06T13:32:53.670Z,16.43
2023-02-06T13:38:35.349Z,12.10
2023-02-06T13:43:39.488Z,15.70
2023-02-06T13:49:18.498Z,14.93
2023-02-06T13:54:42.354Z,17.73
2023-02-06T14:00:14.072Z,17.00
2023-02-06T14:05:22.641Z,13.13
2023-02-06T14:11:06.428Z,11.07
2023-02-06T14:16:42.515Z,17.43
2023-02-06T14:22:02.548Z,16.53
2023-02-06T14:27:22.974Z,13.93
2023-02-06T14:33:00.412Z,10.87
2023-02-06T14:38:21.934Z,12.20
2023-02-06T14:43:30.239Z,12.07
2023-02-06T14:48:52.563Z,13.83
2023-02-06T14:54:18.056Z,9.90
2023-02-06T14:59:21.185Z,14.07
2023-02-06T15:04:30.537Z,22.90
2023-02-06T15:09:40.795Z,21.37
2023-02-06T15:14:53.173Z,18.50
2023-02-06T15:19:56.337Z,24.97
2023-02-06T15:25:06.078Z,17.10
2023-02-06T15:30:28.105Z,23.00
2023-02-06T15:35:36.754Z,15.03
2023-02-06T15:46:20.540Z,18.73
2023-02-06T15:51:29.518Z,15.77
2023-02-06T15:56:40.428Z,18.63
2023-02-06T16:01:44.770Z,14.77
2023-02-06T16:07:05.622Z,16.10
2023-02-06T16:12:10.155Z,18.53
2023-02-06T16:17:13.856Z,16.63
2023-02-06T16:22:23.329Z,15.07
2023-02-06T16:27:28.514Z,17.27
2023-02-06T16:32:33.192Z,13.87
2023-02-06T16:37:36.792Z,14.03
2023-02-06T16:42:48.507Z,14.73
2023-02-06T16:47:59.950Z,14.13
2023-02-06T16:53:19.838Z,21.30
2023-02-06T17:10:09.385Z,33.70
2023-02-06T17:15:29.543Z,24.80
2023-02-06T17:20:41.108Z,25.53
2023-02-06T17:25:49.596Z,27.87
2023-02-06T17:30:57.833Z,28.03
2023-02-06T17:36:09.120Z,29.73
2023-02-06T17:41:18.415Z,30.33
2023-02-06T17:46:29.572Z,34.43
2023-02-06T17:51:35.600Z,43.20
2023-02-06T17:56:48.050Z,52.93
2023-02-06T18:02:02.797Z,45.37
2023-02-06T18:07:10.730Z,38.67
2023-02-06T18:12:18.861Z,35.37
2023-02-06T18:17:25.440Z,28.53
2023-02-06T18:22:29.532Z,36.27
2023-02-06T18:27:33.828Z,29.63
2023-02-06T18:32:39.680Z,34.03
2023-02-06T18:37:44.757Z,30.23
2023-02-06T18:42:52.431Z,26.50
2023-02-06T18:47:58.813Z,25.80
2023-02-06T18:53:06.632Z,24.70
2023-02-06T18:58:12.432Z,20.70
2023-02-06T19:03:16.941Z,31.03
2023-02-06T19:08:23.055Z,26.83
2023-02-06T19:13:30.762Z,46.07
2023-02-06T19:18:40.957Z,39.03
2023-02-06T19:23:51.461Z,36.57
2023-02-06T19:28:58.251Z,35.53
2023-02-06T19:34:04.466Z,42.10
2023-02-06T19:39:14.612Z,38.50
2023-02-06T19:44:21.906Z,40.43
2023-02-06T19:49:28.740Z,42.53
2023-02-06T19:54:36.153Z,36.33
2023-02-06T19:59:39.892Z,38.70
2023-02-06T20:04:47.634Z,40.17
2023-02-06T20:09:58.214Z,32.60
2023-02-06T20:15:04.330Z,29.50
2023-02-06T20:20:09.295Z,31.90
2023-02-06T20:25:14.150Z,30.47
2023-02-06T20:30:21.438Z,28.43
2023-02-06T20:35:28.032Z,24.40
2023-02-06T20:40:32.680Z,34.40
2023-02-06T20:45:38.093Z,29.57
2023-02-06T20:50:42.222Z,30.87
2023-02-06T20:55:47.151Z,35.80
2023-02-06T21:00:51.542Z,38.17
2023-02-06T21:06:00.759Z,27.30
2023-02-06T21:11:07.484Z,28.63
2023-02-06T21:16:13.616Z,44.03
2023-02-06T21:21:17.874Z,32.10
2023-02-06T21:26:23.810Z,29.33
2023-02-06T21:31:38.179Z,27.43
2023-02-06T21:36:43.710Z,27.20
2023-02-06T21:41:51.896Z,37.13
2023-02-06T21:53:27.685Z,31.80
2023-02-06T21:58:31.106Z,35.47
2023-02-06T22:03:35.322Z,31.47
2023-02-06T22:08:42.168Z,34.23
2023-02-06T22:13:45.809Z,32.93
2023-02-06T22:18:50.328Z,53.20
2023-02-06T22:23:56.464Z,39.80
2023-02-06T22:29:00.781Z,38.50
2023-02-06T22:34:05.203Z,45.07
2023-02-06T22:39:10.830Z,44.43
2023-02-06T22:44:18.580Z,45.50
2023-02-06T22:49:25.543Z,45.37
2023-02-06T22:54:29.279Z,38.87
2023-02-06T22:59:32.819Z,44.30
2023-02-06T23:04:38.681Z,38.40
2023-02-06T23:09:42.287Z,41.77
2023-02-06T23:14:45.641Z,51.63
2023-02-06T23:19:48.987Z,46.40
2023-02-06T23:24:52.441Z,53.47
2023-02-06T23:29:55.877Z,46.23
2023-02-06T23:34:59.965Z,47.47
2023-02-06T23:40:05.861Z,50.67
2023-02-06T23:45:09.555Z,50.97
2023-02-06T23:50:13.352Z,51.97
2023-02-06T23:55:17.560Z,45.73
